sensor_id;sensor_type;location;lat;lon;timestamp;temperature;humidity
67603;DHT22;54417;47.454;18.918;2022-08-07T00:03:19;19.64;70.06
67603;DHT22;54417;47.454;18.918;2022-08-07T00:08:48;19.77;69.72
67603;DHT22;54417;47.454;18.918;2022-08-07T00:14:14;19.78;69.85
67603;DHT22;54417;47.454;18.918;2022-08-07T00:19:40;19.88;69.42
67603;DHT22;54417;47.454;18.918;2022-08-07T00:25:25;19.84;69.58
67603;DHT22;54417;47.454;18.918;2022-08-07T00:30:58;19.82;69.57
67603;DHT22;54417;47.454;18.918;2022-08-07T00:36:27;19.77;69.83
67603;DHT22;54417;47.454;18.918;2022-08-07T00:41:55;19.70;70.16
67603;DHT22;54417;47.454;18.918;2022-08-07T00:47:26;19.61;70.62
67603;DHT22;54417;47.454;18.918;2022-08-07T00:53:10;19.57;70.51
67603;DHT22;54417;47.454;18.918;2022-08-07T00:58:35;19.60;70.53
67603;DHT22;54417;47.454;18.918;2022-08-07T01:03:59;19.60;70.68
67603;DHT22;54417;47.454;18.918;2022-08-07T01:09:23;19.63;70.41
67603;DHT22;54417;47.454;18.918;2022-08-07T01:15:09;19.73;70.47
67603;DHT22;54417;47.454;18.918;2022-08-07T01:20:44;19.71;70.20
67603;DHT22;54417;47.454;18.918;2022-08-07T01:26:25;19.81;70.14
67603;DHT22;54417;47.454;18.918;2022-08-07T01:31:49;19.79;69.96
67603;DHT22;54417;47.454;18.918;2022-08-07T01:37:14;19.82;70.49
67603;DHT22;54417;47.454;18.918;2022-08-07T01:42:42;19.84;70.18
67603;DHT22;54417;47.454;18.918;2022-08-07T01:48:19;19.88;69.77
67603;DHT22;54417;47.454;18.918;2022-08-07T01:53:56;19.89;69.65
67603;DHT22;54417;47.454;18.918;2022-08-07T01:59:49;19.85;69.91
67603;DHT22;54417;47.454;18.918;2022-08-07T02:05:22;19.84;70.03
67603;DHT22;54417;47.454;18.918;2022-08-07T02:11:10;19.84;69.97
67603;DHT22;54417;47.454;18.918;2022-08-07T02:16:57;19.85;69.88
67603;DHT22;54417;47.454;18.918;2022-08-07T02:22:24;19.84;69.83
67603;DHT22;54417;47.454;18.918;2022-08-07T02:27:50;19.79;70.62
67603;DHT22;54417;47.454;18.918;2022-08-07T02:33:18;19.84;70.22
67603;DHT22;54417;47.454;18.918;2022-08-07T02:38:43;19.86;69.82
67603;DHT22;54417;47.454;18.918;2022-08-07T02:44:20;19.82;69.97
67603;DHT22;54417;47.454;18.918;2022-08-07T02:49:50;19.71;70.14
67603;DHT22;54417;47.454;18.918;2022-08-07T02:55:22;19.75;70.30
67603;DHT22;54417;47.454;18.918;2022-08-07T03:01:06;19.77;70.09
67603;DHT22;54417;47.454;18.918;2022-08-07T03:06:55;19.82;69.94
67603;DHT22;54417;47.454;18.918;2022-08-07T03:12:25;19.67;70.26
67603;DHT22;54417;47.454;18.918;2022-08-07T03:17:59;19.70;70.30
67603;DHT22;54417;47.454;18.918;2022-08-07T03:23:26;19.64;70.39
67603;DHT22;54417;47.454;18.918;2022-08-07T03:29:12;19.74;70.13
67603;DHT22;54417;47.454;18.918;2022-08-07T03:34:41;19.75;70.30
67603;DHT22;54417;47.454;18.918;2022-08-07T03:40:27;19.74;70.57
67603;DHT22;54417;47.454;18.918;2022-08-07T03:46:00;19.65;71.40
67603;DHT22;54417;47.454;18.918;2022-08-07T03:51:32;19.61;71.68
67603;DHT22;54417;47.454;18.918;2022-08-07T03:57:11;19.58;70.85
67603;DHT22;54417;47.454;18.918;2022-08-07T04:02:55;19.74;70.59
67603;DHT22;54417;47.454;18.918;2022-08-07T04:08:25;19.77;70.64
67603;DHT22;54417;47.454;18.918;2022-08-07T04:13:53;19.86;70.67
67603;DHT22;54417;47.454;18.918;2022-08-07T04:19:39;19.94;70.32
67603;DHT22;54417;47.454;18.918;2022-08-07T04:25:16;19.92;71.26
67603;DHT22;54417;47.454;18.918;2022-08-07T04:30:48;19.89;71.89
67603;DHT22;54417;47.454;18.918;2022-08-07T04:36:23;19.86;72.09
67603;DHT22;54417;47.454;18.918;2022-08-07T04:41:48;19.89;72.30
67603;DHT22;54417;47.454;18.918;2022-08-07T04:47:19;19.88;72.09
67603;DHT22;54417;47.454;18.918;2022-08-07T04:53:09;19.95;71.87
67603;DHT22;54417;47.454;18.918;2022-08-07T04:58:59;20.02;71.93
67603;DHT22;54417;47.454;18.918;2022-08-07T05:04:54;20.08;70.71
67603;DHT22;54417;47.454;18.918;2022-08-07T05:10:25;20.12;70.79
67603;DHT22;54417;47.454;18.918;2022-08-07T05:15:52;20.18;71.07
67603;DHT22;54417;47.454;18.918;2022-08-07T05:21:20;20.26;70.80
67603;DHT22;54417;47.454;18.918;2022-08-07T05:27:07;20.39;70.23
67603;DHT22;54417;47.454;18.918;2022-08-07T05:32:53;20.69;69.12
67603;DHT22;54417;47.454;18.918;2022-08-07T05:38:21;21.01;68.43
67603;DHT22;54417;47.454;18.918;2022-08-07T05:44:06;21.18;67.65
67603;DHT22;54417;47.454;18.918;2022-08-07T05:49:38;21.20;67.63
67603;DHT22;54417;47.454;18.918;2022-08-07T05:55:06;21.31;66.95
67603;DHT22;54417;47.454;18.918;2022-08-07T06:00:38;21.32;66.54
67603;DHT22;54417;47.454;18.918;2022-08-07T06:06:10;21.45;66.23
67603;DHT22;54417;47.454;18.918;2022-08-07T06:11:43;21.59;66.18
67603;DHT22;54417;47.454;18.918;2022-08-07T06:17:09;21.45;65.36
67603;DHT22;54417;47.454;18.918;2022-08-07T06:22:37;21.56;65.47
67603;DHT22;54417;47.454;18.918;2022-08-07T06:28:22;21.87;64.57
67603;DHT22;54417;47.454;18.918;2022-08-07T06:33:51;22.04;64.23
67603;DHT22;54417;47.454;18.918;2022-08-07T06:39:16;22.33;62.84
67603;DHT22;54417;47.454;18.918;2022-08-07T06:45:06;22.43;62.41
67603;DHT22;54417;47.454;18.918;2022-08-07T06:50:35;22.64;62.07
67603;DHT22;54417;47.454;18.918;2022-08-07T06:56:15;22.83;61.34
67603;DHT22;54417;47.454;18.918;2022-08-07T07:02:20;23.33;59.94
67603;DHT22;54417;47.454;18.918;2022-08-07T07:08:04;23.62;59.60
67603;DHT22;54417;47.454;18.918;2022-08-07T07:13:37;23.72;58.61
67603;DHT22;54417;47.454;18.918;2022-08-07T07:19:25;23.40;59.96
67603;DHT22;54417;47.454;18.918;2022-08-07T07:25:11;23.44;59.53
67603;DHT22;54417;47.454;18.918;2022-08-07T07:30:59;23.81;59.71
67603;DHT22;54417;47.454;18.918;2022-08-07T07:36:26;24.29;57.15
67603;DHT22;54417;47.454;18.918;2022-08-07T07:41:55;24.59;55.25
67603;DHT22;54417;47.454;18.918;2022-08-07T07:47:36;24.92;55.35
67603;DHT22;54417;47.454;18.918;2022-08-07T07:53:17;25.03;54.75
67603;DHT22;54417;47.454;18.918;2022-08-07T07:58:47;25.32;53.45
67603;DHT22;54417;47.454;18.918;2022-08-07T08:04:16;25.92;51.89
67603;DHT22;54417;47.454;18.918;2022-08-07T08:09:49;26.20;49.07
67603;DHT22;54417;47.454;18.918;2022-08-07T08:15:29;26.38;50.29
67603;DHT22;54417;47.454;18.918;2022-08-07T08:21:16;26.79;47.90
67603;DHT22;54417;47.454;18.918;2022-08-07T08:27:20;26.48;47.12
67603;DHT22;54417;47.454;18.918;2022-08-07T08:32:48;26.61;47.70
67603;DHT22;54417;47.454;18.918;2022-08-07T08:38:17;26.79;47.95
67603;DHT22;54417;47.454;18.918;2022-08-07T08:44:00;27.31;46.22
67603;DHT22;54417;47.454;18.918;2022-08-07T08:49:43;27.26;45.69
67603;DHT22;54417;47.454;18.918;2022-08-07T08:55:31;27.29;44.95
67603;DHT22;54417;47.454;18.918;2022-08-07T09:01:22;26.93;46.08
67603;DHT22;54417;47.454;18.918;2022-08-07T09:07:13;26.76;46.66
67603;DHT22;54417;47.454;18.918;2022-08-07T09:12:52;26.86;46.18
67603;DHT22;54417;47.454;18.918;2022-08-07T09:18:51;27.11;46.09
67603;DHT22;54417;47.454;18.918;2022-08-07T09:24:30;27.13;45.20
67603;DHT22;54417;47.454;18.918;2022-08-07T09:30:18;27.47;45.34
67603;DHT22;54417;47.454;18.918;2022-08-07T09:35:57;27.53;44.58
67603;DHT22;54417;47.454;18.918;2022-08-07T09:41:35;27.94;45.28
67603;DHT22;54417;47.454;18.918;2022-08-07T09:47:37;28.90;42.81
67603;DHT22;54417;47.454;18.918;2022-08-07T09:53:26;29.73;42.18
67603;DHT22;54417;47.454;18.918;2022-08-07T09:59:14;30.08;42.11
67603;DHT22;54417;47.454;18.918;2022-08-07T10:05:24;30.46;40.08
67603;DHT22;54417;47.454;18.918;2022-08-07T10:11:20;30.59;41.28
67603;DHT22;54417;47.454;18.918;2022-08-07T10:17:43;30.64;40.91
67603;DHT22;54417;47.454;18.918;2022-08-07T10:23:41;30.82;39.80
67603;DHT22;54417;47.454;18.918;2022-08-07T10:29:46;30.82;40.39
67603;DHT22;54417;47.454;18.918;2022-08-07T10:35:19;30.37;41.52
67603;DHT22;54417;47.454;18.918;2022-08-07T10:40:51;30.37;40.10
67603;DHT22;54417;47.454;18.918;2022-08-07T10:46:24;30.45;41.39
67603;DHT22;54417;47.454;18.918;2022-08-07T10:51:54;30.59;40.21
67603;DHT22;54417;47.454;18.918;2022-08-07T10:57:47;30.99;40.13
67603;DHT22;54417;47.454;18.918;2022-08-07T11:03:28;31.14;38.28
67603;DHT22;54417;47.454;18.918;2022-08-07T11:09:17;30.90;38.86
67603;DHT22;54417;47.454;18.918;2022-08-07T11:15:06;30.76;39.75
67603;DHT22;54417;47.454;18.918;2022-08-07T11:20:47;30.46;39.12
67603;DHT22;54417;47.454;18.918;2022-08-07T11:26:14;30.66;39.76
67603;DHT22;54417;47.454;18.918;2022-08-07T11:31:47;30.80;38.80
67603;DHT22;54417;47.454;18.918;2022-08-07T11:37:31;30.69;38.38
67603;DHT22;54417;47.454;18.918;2022-08-07T11:43:20;30.38;38.84
67603;DHT22;54417;47.454;18.918;2022-08-07T11:49:19;29.87;39.79
67603;DHT22;54417;47.454;18.918;2022-08-07T11:55:16;30.04;40.31
67603;DHT22;54417;47.454;18.918;2022-08-07T12:01:17;29.96;39.82
67603;DHT22;54417;47.454;18.918;2022-08-07T12:07:13;29.74;40.59
67603;DHT22;54417;47.454;18.918;2022-08-07T12:12:55;30.13;40.61
67603;DHT22;54417;47.454;18.918;2022-08-07T12:18:24;30.20;40.01
67603;DHT22;54417;47.454;18.918;2022-08-07T12:23:58;30.37;40.17
67603;DHT22;54417;47.454;18.918;2022-08-07T12:29:34;30.01;40.81
67603;DHT22;54417;47.454;18.918;2022-08-07T12:35:02;30.44;40.22
67603;DHT22;54417;47.454;18.918;2022-08-07T12:40:31;30.65;39.89
67603;DHT22;54417;47.454;18.918;2022-08-07T12:46:21;31.13;39.76
67603;DHT22;54417;47.454;18.918;2022-08-07T12:52:01;31.80;39.61
67603;DHT22;54417;47.454;18.918;2022-08-07T12:57:38;31.96;38.21
67603;DHT22;54417;47.454;18.918;2022-08-07T13:03:49;32.10;37.22
67603;DHT22;54417;47.454;18.918;2022-08-07T13:09:41;32.55;36.91
67603;DHT22;54417;47.454;18.918;2022-08-07T13:15:35;32.95;36.36
67603;DHT22;54417;47.454;18.918;2022-08-07T13:21:09;32.97;35.93
67603;DHT22;54417;47.454;18.918;2022-08-07T13:27:02;32.29;37.91
67603;DHT22;54417;47.454;18.918;2022-08-07T13:32:37;32.41;36.55
67603;DHT22;54417;47.454;18.918;2022-08-07T13:38:10;33.19;37.16
67603;DHT22;54417;47.454;18.918;2022-08-07T13:43:40;33.49;35.29
67603;DHT22;54417;47.454;18.918;2022-08-07T13:49:17;33.29;34.44
67603;DHT22;54417;47.454;18.918;2022-08-07T13:55:09;33.04;36.53
67603;DHT22;54417;47.454;18.918;2022-08-07T14:00:41;32.86;35.13
67603;DHT22;54417;47.454;18.918;2022-08-07T14:06:16;32.55;35.61
67603;DHT22;54417;47.454;18.918;2022-08-07T14:11:45;32.52;35.49
67603;DHT22;54417;47.454;18.918;2022-08-07T14:17:23;32.91;35.76
67603;DHT22;54417;47.454;18.918;2022-08-07T14:23:13;32.71;35.22
67603;DHT22;54417;47.454;18.918;2022-08-07T14:28:56;31.86;36.47
67603;DHT22;54417;47.454;18.918;2022-08-07T14:34:33;32.05;36.39
67603;DHT22;54417;47.454;18.918;2022-08-07T14:40:12;31.77;36.99
67603;DHT22;54417;47.454;18.918;2022-08-07T14:45:52;31.81;36.51
67603;DHT22;54417;47.454;18.918;2022-08-07T14:51:19;31.91;36.04
67603;DHT22;54417;47.454;18.918;2022-08-07T14:56:46;32.26;37.15
67603;DHT22;54417;47.454;18.918;2022-08-07T15:02:20;32.37;36.15
67603;DHT22;54417;47.454;18.918;2022-08-07T15:07:56;32.29;36.27
67603;DHT22;54417;47.454;18.918;2022-08-07T15:13:22;32.67;35.55
67603;DHT22;54417;47.454;18.918;2022-08-07T15:19:00;35.36;30.89
67603;DHT22;54417;47.454;18.918;2022-08-07T15:24:30;37.07;28.99
67603;DHT22;54417;47.454;18.918;2022-08-07T15:30:15;38.60;27.47
67603;DHT22;54417;47.454;18.918;2022-08-07T15:35:42;38.09;27.37
67603;DHT22;54417;47.454;18.918;2022-08-07T15:41:28;38.27;27.50
67603;DHT22;54417;47.454;18.918;2022-08-07T15:47:13;36.20;30.00
67603;DHT22;54417;47.454;18.918;2022-08-07T15:53:03;34.24;32.47
67603;DHT22;54417;47.454;18.918;2022-08-07T15:58:34;33.35;33.80
67603;DHT22;54417;47.454;18.918;2022-08-07T16:04:02;32.47;35.01
67603;DHT22;54417;47.454;18.918;2022-08-07T16:09:47;31.92;36.21
67603;DHT22;54417;47.454;18.918;2022-08-07T16:15:32;32.29;35.37
67603;DHT22;54417;47.454;18.918;2022-08-07T16:21:29;31.54;36.63
67603;DHT22;54417;47.454;18.918;2022-08-07T16:27:22;31.33;37.27
67603;DHT22;54417;47.454;18.918;2022-08-07T16:33:07;31.65;36.38
67603;DHT22;54417;47.454;18.918;2022-08-07T16:39:03;31.43;37.10
67603;DHT22;54417;47.454;18.918;2022-08-07T16:44:57;30.51;38.61
67603;DHT22;54417;47.454;18.918;2022-08-07T16:50:50;30.28;39.24
67603;DHT22;54417;47.454;18.918;2022-08-07T16:56:49;30.00;39.46
67603;DHT22;54417;47.454;18.918;2022-08-07T17:02:27;29.73;40.63
67603;DHT22;54417;47.454;18.918;2022-08-07T17:08:32;29.39;41.04
67603;DHT22;54417;47.454;18.918;2022-08-07T17:14:22;29.07;41.60
67603;DHT22;54417;47.454;18.918;2022-08-07T17:19:57;28.83;41.66
67603;DHT22;54417;47.454;18.918;2022-08-07T17:25:43;28.86;43.85
67603;DHT22;54417;47.454;18.918;2022-08-07T17:31:17;28.49;45.65
67603;DHT22;54417;47.454;18.918;2022-08-07T17:36:49;28.40;45.47
67603;DHT22;54417;47.454;18.918;2022-08-07T17:42:39;28.05;44.35
67603;DHT22;54417;47.454;18.918;2022-08-07T17:48:22;27.91;46.78
67603;DHT22;54417;47.454;18.918;2022-08-07T17:54:06;27.71;45.91
67603;DHT22;54417;47.454;18.918;2022-08-07T17:59:39;27.57;45.50
67603;DHT22;54417;47.454;18.918;2022-08-07T18:05:13;27.36;49.57
67603;DHT22;54417;47.454;18.918;2022-08-07T18:10:49;27.24;46.67
67603;DHT22;54417;47.454;18.918;2022-08-07T18:16:38;27.06;48.75
67603;DHT22;54417;47.454;18.918;2022-08-07T18:22:23;26.90;49.76
67603;DHT22;54417;47.454;18.918;2022-08-07T18:28:11;26.69;47.85
67603;DHT22;54417;47.454;18.918;2022-08-07T18:34:12;26.65;51.89
67603;DHT22;54417;47.454;18.918;2022-08-07T18:40:12;26.48;52.15
67603;DHT22;54417;47.454;18.918;2022-08-07T18:46:03;26.27;50.81
67603;DHT22;54417;47.454;18.918;2022-08-07T18:51:50;26.05;50.01
67603;DHT22;54417;47.454;18.918;2022-08-07T18:57:41;25.93;49.45
67603;DHT22;54417;47.454;18.918;2022-08-07T19:03:25;25.87;49.65
67603;DHT22;54417;47.454;18.918;2022-08-07T19:09:04;25.79;49.97
67603;DHT22;54417;47.454;18.918;2022-08-07T19:15:15;25.84;50.42
67603;DHT22;54417;47.454;18.918;2022-08-07T19:21:09;25.72;49.90
67603;DHT22;54417;47.454;18.918;2022-08-07T19:26:56;25.56;50.29
67603;DHT22;54417;47.454;18.918;2022-08-07T19:32:42;25.36;50.99
67603;DHT22;54417;47.454;18.918;2022-08-07T19:38:11;25.43;45.10
67603;DHT22;54417;47.454;18.918;2022-08-07T19:43:41;25.26;45.58
67603;DHT22;54417;47.454;18.918;2022-08-07T19:49:21;25.01;46.98
67603;DHT22;54417;47.454;18.918;2022-08-07T19:55:08;24.86;45.54
67603;DHT22;54417;47.454;18.918;2022-08-07T20:00:38;24.67;46.76
67603;DHT22;54417;47.454;18.918;2022-08-07T20:06:17;24.46;46.48
67603;DHT22;54417;47.454;18.918;2022-08-07T20:11:54;24.09;49.78
67603;DHT22;54417;47.454;18.918;2022-08-07T20:17:39;23.57;50.77
67603;DHT22;54417;47.454;18.918;2022-08-07T20:23:08;23.14;52.96
67603;DHT22;54417;47.454;18.918;2022-08-07T20:28:56;22.82;55.56
67603;DHT22;54417;47.454;18.918;2022-08-07T20:34:32;22.49;56.26
67603;DHT22;54417;47.454;18.918;2022-08-07T20:40:14;22.38;56.06
67603;DHT22;54417;47.454;18.918;2022-08-07T20:45:57;22.22;54.98
67603;DHT22;54417;47.454;18.918;2022-08-07T20:51:42;22.08;54.70
67603;DHT22;54417;47.454;18.918;2022-08-07T20:57:12;21.90;56.44
67603;DHT22;54417;47.454;18.918;2022-08-07T21:02:42;22.17;51.42
67603;DHT22;54417;47.454;18.918;2022-08-07T21:08:29;22.34;49.80
67603;DHT22;54417;47.454;18.918;2022-08-07T21:14:04;22.51;49.00
67603;DHT22;54417;47.454;18.918;2022-08-07T21:19:50;22.66;48.27
67603;DHT22;54417;47.454;18.918;2022-08-07T21:25:38;22.85;47.34
67603;DHT22;54417;47.454;18.918;2022-08-07T21:31:10;22.89;47.21
67603;DHT22;54417;47.454;18.918;2022-08-07T21:36:43;22.85;47.30
67603;DHT22;54417;47.454;18.918;2022-08-07T21:42:16;22.89;47.17
67603;DHT22;54417;47.454;18.918;2022-08-07T21:48:07;22.73;48.01
67603;DHT22;54417;47.454;18.918;2022-08-07T21:54:03;22.56;49.32
67603;DHT22;54417;47.454;18.918;2022-08-07T21:59:33;22.27;51.86
67603;DHT22;54417;47.454;18.918;2022-08-07T22:05:27;21.89;52.26
67603;DHT22;54417;47.454;18.918;2022-08-07T22:11:09;21.50;54.50
67603;DHT22;54417;47.454;18.918;2022-08-07T22:16:43;21.17;52.92
67603;DHT22;54417;47.454;18.918;2022-08-07T22:22:09;21.27;52.04
67603;DHT22;54417;47.454;18.918;2022-08-07T22:27:58;21.08;53.47
67603;DHT22;54417;47.454;18.918;2022-08-07T22:33:44;20.83;56.14
67603;DHT22;54417;47.454;18.918;2022-08-07T22:39:25;20.62;58.19
67603;DHT22;54417;47.454;18.918;2022-08-07T22:44:55;20.49;57.78
67603;DHT22;54417;47.454;18.918;2022-08-07T22:50:28;20.22;57.88
67603;DHT22;54417;47.454;18.918;2022-08-07T22:55:58;20.08;59.74
67603;DHT22;54417;47.454;18.918;2022-08-07T23:01:37;19.92;61.19
67603;DHT22;54417;47.454;18.918;2022-08-07T23:07:18;19.77;61.32
67603;DHT22;54417;47.454;18.918;2022-08-07T23:13:15;19.57;61.15
67603;DHT22;54417;47.454;18.918;2022-08-07T23:18:56;19.38;62.21
67603;DHT22;54417;47.454;18.918;2022-08-07T23:24:45;19.23;62.24
67603;DHT22;54417;47.454;18.918;2022-08-07T23:30:11;19.13;61.91
67603;DHT22;54417;47.454;18.918;2022-08-07T23:36:03;19.06;65.31
67603;DHT22;54417;47.454;18.918;2022-08-07T23:41:42;18.99;65.13
67603;DHT22;54417;47.454;18.918;2022-08-07T23:47:33;18.91;64.13
67603;DHT22;54417;47.454;18.918;2022-08-07T23:53:20;18.75;64.75
67603;DHT22;54417;47.454;18.918;2022-08-07T23:59:14;18.52;64.20
